Time;durP1;ratioP1;P1;durP2;ratioP2;P2;SDS_P1;SDS_P2;PMS_P1;PMS_P2;Temp;Humidity;BMP_temperature;BMP_pressure;BME280_temperature;BME280_humidity;BME280_pressure;Samples;Min_cycle;Max_cycle;Signal;HPM_P1;HPM_P2
2022/04/14 08:54:07;;;;;;;15.10;12.20;;;;;;;14.89;71.55;101986.25;6531901;22;21196;-82
2022/04/14 15:37:57;;;;;;;9.52;3.67;;;;;;;27.97;30.27;101973.47;6529048;22;20023;-86
2022/04/14 16:21:29;;;;;;;7.88;4.72;;;;;;;22.13;41.83;101992.69;6480164;23;20054;-81
2022/04/14 16:24:01;;;;;;;9.93;6.63;;;;;;;21.31;43.94;101998.59;6496118;23;20066;-81
2022/04/14 16:27:05;;;;;;;8.97;6.43;;;;;;;21.07;44.70;102003.06;6495826;23;20411;-81
2022/04/14 16:30:04;;;;;;;;;;;;;;;;;;;;;
2022/04/14 16:32:37;;;;;;;9.43;6.68;;;;;;;21.17;45.42;102003.59;6494815;23;20466;-81
2022/04/14 16:35:14;;;;;;;8.02;6.38;;;;;;;20.85;45.19;101997.72;6495398;23;20008;-81
2022/04/14 16:37:46;;;;;;;9.15;5.65;;;;;;;20.88;44.31;102012.63;6467329;23;20034;-81
2022/04/14 16:40:20;;;;;;;8.00;5.57;;;;;;;20.66;44.08;102005.44;6495081;23;20083;-81
2022/04/14 16:42:52;;;;;;;6.88;5.43;;;;;;;20.81;43.69;102009.31;6495285;23;20008;-81
2022/04/14 16:48:26;;;;;;;7.43;5.82;;;;;;;21.33;44.26;102014.44;6366960;23;20480;-81
2022/04/14 16:50:57;;;;;;;9.57;6.88;;;;;;;21.29;44.19;102012.84;6367219;23;20081;-80
2022/04/14 16:53:29;;;;;;;8.43;7.18;;;;;;;20.98;44.20;102021.97;6368172;23;20014;-81
2022/04/14 16:56:00;;;;;;;7.80;6.20;;;;;;;21.17;43.95;102011.56;6369189;23;20006;-80
2022/04/14 16:58:35;;;;;;;8.40;6.20;;;;;;;21.50;43.81;102011.19;6369215;23;20014;-80
2022/04/14 17:01:07;;;;;;;9.45;6.43;;;;;;;21.62;43.54;102008.06;6344700;23;20485;-81
2022/04/14 17:03:38;;;;;;;7.93;5.75;;;;;;;21.58;43.06;102021.50;6368843;23;20014;-80
2022/04/14 17:06:16;;;;;;;10.17;6.37;;;;;;;21.67;43.75;102007.88;6369619;23;20593;-81
2022/04/14 17:08:47;;;;;;;7.70;5.93;;;;;;;20.90;44.04;102014.28;6369428;23;20009;-82
2022/04/14 17:11:19;;;;;;;10.77;5.80;;;;;;;21.34;43.23;102015.34;6369784;23;20329;-81
2022/04/14 17:13:52;;;;;;;7.13;6.18;;;;;;;21.33;43.00;102022.41;6369266;23;20018;-81
2022/04/14 17:16:24;;;;;;;8.68;6.15;;;;;;;22.00;41.96;102028.66;6369131;23;20313;-81
2022/04/14 17:18:55;;;;;;;9.03;5.53;;;;;;;23.06;40.53;102039.19;6368785;23;20386;-80
2022/04/14 17:24:20;;;;;;;8.32;6.10;;;;;;;21.88;40.87;102042.44;6380689;23;20750;-82
2022/04/14 17:26:54;;;;;;;8.77;6.95;;;;;;;20.59;43.63;102036.56;6496737;23;20079;-81
2022/04/14 17:29:26;;;;;;;8.40;5.72;;;;;;;20.47;44.56;102030.81;6496782;23;20031;-81
2022/04/14 17:31:57;;;;;;;9.33;6.07;;;;;;;20.12;45.23;102043.47;6496531;23;20012;-80
2022/04/14 17:34:32;;;;;;;7.97;5.60;;;;;;;19.53;46.29;102047.94;6496770;23;20243;-81
2022/04/14 17:37:04;;;;;;;8.38;5.85;;;;;;;18.95;48.30;102048.69;6496541;23;20334;-81
2022/04/14 17:39:45;;;;;;;8.37;6.20;;;;;;;18.78;49.06;102056.19;6497441;23;20062;-81
2022/04/14 17:42:20;;;;;;;10.02;7.15;;;;;;;18.51;49.26;102045.44;6498191;23;20457;-81
2022/04/14 17:44:51;;;;;;;8.65;6.60;;;;;;;18.13;50.55;102047.28;6497706;23;20014;-81
2022/04/14 17:47:28;;;;;;;8.70;6.77;;;;;;;17.83;51.34;102052.31;6497866;23;20411;-81
2022/04/14 17:50:02;;;;;;;8.32;6.60;;;;;;;17.68;52.72;102068.50;6497587;23;20004;-80
2022/04/14 17:52:34;;;;;;;10.07;7.70;;;;;;;17.63;52.72;102073.03;6499200;23;20013;-79
2022/04/14 17:55:08;;;;;;;12.13;8.10;;;;;;;17.12;53.98;102074.06;6499766;23;20029;-79
2022/04/14 17:57:40;;;;;;;10.75;9.13;;;;;;;16.90;54.84;102076.22;6499309;23;20031;-80
2022/04/14 18:00:12;;;;;;;10.63;7.57;;;;;;;16.83;55.61;102080.72;6500526;23;20004;-82
2022/04/14 18:02:44;;;;;;;12.50;8.07;;;;;;;16.86;55.33;102074.56;6500470;23;20065;-81
2022/04/14 18:05:16;;;;;;;9.47;7.30;;;;;;;16.61;55.82;102084.63;6498919;23;20012;-80
2022/04/14 18:07:48;;;;;;;10.68;8.18;;;;;;;16.51;56.51;102068.97;6500070;23;20305;-80
2022/04/14 18:10:20;;;;;;;9.68;6.95;;;;;;;16.53;56.75;102079.47;6473215;23;20000;-80
2022/04/14 18:12:51;;;;;;;10.75;8.88;;;;;;;16.33;57.21;102085.09;6472775;23;20071;-80
2022/04/14 18:15:23;;;;;;;12.20;8.60;;;;;;;16.26;57.20;102080.81;6498095;23;20083;-80
2022/04/14 18:17:55;;;;;;;15.23;8.17;;;;;;;16.14;57.54;102081.88;6497884;23;20004;-81
2022/04/14 18:20:30;;;;;;;9.48;7.68;;;;;;;16.25;56.97;102084.34;6470868;23;20008;-80
2022/04/14 18:23:07;;;;;;;11.18;7.10;;;;;;;15.95;57.95;102084.75;6497283;23;20051;-80
2022/04/14 18:25:39;;;;;;;9.35;7.75;;;;;;;16.33;57.42;102082.47;6498004;23;20374;-80
2022/04/14 18:28:11;;;;;;;9.65;7.93;;;;;;;16.10;57.19;102077.53;6498667;23;20107;-80
2022/04/14 18:30:46;;;;;;;8.40;7.18;;;;;;;16.16;57.86;102096.72;6498493;23;20020;-79
2022/04/14 18:33:20;;;;;;;9.88;7.55;;;;;;;16.13;57.73;102093.28;6472054;23;20035;-80
2022/04/14 18:35:52;;;;;;;11.68;8.32;;;;;;;15.86;58.23;102090.19;6498469;23;20007;-80
2022/04/14 18:38:23;;;;;;;9.60;7.73;;;;;;;15.69;59.10;102095.63;6471512;23;20338;-80
2022/04/14 18:40:55;;;;;;;8.63;7.70;;;;;;;15.85;58.57;102102.44;6499165;23;20004;-80
2022/04/14 18:43:27;;;;;;;9.97;8.40;;;;;;;15.64;59.05;102097.44;6497996;23;20032;-79
2022/04/14 18:45:58;;;;;;;10.53;8.37;;;;;;;15.56;59.01;102101.94;6497543;23;20087;-79
2022/04/14 18:48:30;;;;;;;13.23;7.93;;;;;;;15.39;58.85;102108.25;6470858;23;20008;-79
2022/04/14 18:51:01;;;;;;;10.27;8.90;;;;;;;15.25;59.51;102124.19;6470687;23;20329;-79
2022/04/14 18:53:33;;;;;;;11.67;9.03;;;;;;;15.41;59.16;102124.88;6498864;23;20000;-78
2022/04/14 18:56:04;;;;;;;11.90;8.53;;;;;;;15.25;59.43;102134.69;6472382;23;20089;-79
2022/04/14 18:58:36;;;;;;;10.13;8.20;;;;;;;15.12;59.65;102133.06;6498816;23;20008;-78
2022/04/14 19:01:10;;;;;;;17.23;8.10;;;;;;;15.09;60.26;102128.72;6498690;23;20023;-80
2022/04/14 19:03:43;;;;;;;10.23;7.97;;;;;;;15.18;60.05;102135.63;6498433;23;20054;-80
2022/04/14 19:06:15;;;;;;;10.65;8.57;;;;;;;15.31;60.18;102138.97;6498423;23;20010;-78
2022/04/14 19:08:46;;;;;;;12.03;8.47;;;;;;;15.24;59.75;102148.69;6471892;23;20505;-78
2022/04/14 19:11:18;;;;;;;10.93;7.57;;;;;;;15.37;59.55;102144.19;6498369;23;20004;-78
2022/04/14 19:13:49;;;;;;;12.23;8.60;;;;;;;15.29;59.93;102144.28;6498256;23;20007;-78
2022/04/14 19:16:21;;;;;;;11.70;7.90;;;;;;;15.27;59.92;102140.78;6497722;23;20071;-79
2022/04/14 19:18:52;;;;;;;15.67;8.77;;;;;;;15.10;60.60;102151.47;6472471;23;20061;-78
2022/04/14 19:21:24;;;;;;;12.63;8.63;;;;;;;14.94;61.11;102150.75;6472205;23;20012;-80
2022/04/14 19:23:55;;;;;;;10.03;8.00;;;;;;;14.83;60.75;102143.84;6498671;23;20035;-79
2022/04/14 19:26:27;;;;;;;8.67;7.57;;;;;;;14.66;61.52;102157.97;6498833;23;20075;-79
2022/04/14 19:28:59;;;;;;;10.50;7.97;;;;;;;14.70;61.46;102169.31;6497901;23;20007;-79
2022/04/14 19:31:31;;;;;;;;;;;;;;;14.84;59.53;102177.94;6499257;23;20394;-78
2022/04/14 19:34:02;;;;;;;13.25;9.38;;;;;;;14.64;61.24;102159.75;6497897;23;19911;-79
2022/04/14 19:36:34;;;;;;;12.83;9.13;;;;;;;14.65;60.88;102164.13;6498683;23;20027;-77
2022/04/14 19:39:05;;;;;;;12.03;7.77;;;;;;;14.58;61.03;102171.13;6471282;23;20338;-77
2022/04/14 19:41:37;;;;;;;10.27;8.53;;;;;;;14.57;60.99;102174.63;6497547;23;20000;-79
2022/04/14 19:44:09;;;;;;;10.80;8.47;;;;;;;14.32;61.64;102170.44;6497168;23;20008;-77
2022/04/14 19:46:40;;;;;;;12.00;8.13;;;;;;;14.12;62.49;102167.91;6498616;23;20075;-78
2022/04/14 19:49:11;;;;;;;12.80;8.80;;;;;;;13.97;62.09;102164.50;6497417;23;20207;-79
2022/04/14 19:51:43;;;;;;;12.27;8.00;;;;;;;14.04;62.56;102176.72;6497556;23;20004;-79
2022/04/14 19:54:14;;;;;;;12.07;8.63;;;;;;;13.88;62.57;102171.53;6471571;23;20008;-79
2022/04/14 19:56:49;;;;;;;10.93;7.90;;;;;;;13.98;63.19;102181.97;6471664;23;20513;-79
2022/04/14 19:59:20;;;;;;;12.93;8.55;;;;;;;13.90;63.32;102175.03;6471728;23;20016;-80
2022/04/14 20:01:53;;;;;;;10.87;8.37;;;;;;;13.91;63.54;102174.13;6471307;23;20418;-79
2022/04/14 20:04:24;;;;;;;;;;;;;;;13.95;61.59;102174.13;6498020;23;20059;-78
2022/04/14 20:07:05;;;;;;;15.95;9.43;;;;;;;13.83;63.85;102175.06;6497124;23;19911;-79
2022/04/14 21:14:15;;;;;;;12.93;10.55;;;;;;;12.21;69.61;102231.78;6106791;24;20018;-80
